Time;durP1;ratioP1;P1;durP2;ratioP2;P2;SDS_P1;SDS_P2;PMS_P1;PMS_P2;Temp;Humidity;BMP_temperature;BMP_pressure;BME280_temperature;BME280_humidity;BME280_pressure;Samples;Min_cycle;Max_cycle;Signal;HPM_P1;HPM_P2
2024/01/28 00:00:16;;;;;;;8.57;2.80;;;;;3.10;95443.00;;;;7399079;19;20149;-82
2024/01/28 00:02:50;;;;;;;4.47;3.53;;;;;3.00;95449.00;;;;7400723;19;20158;-83
2024/01/28 00:05:25;;;;;;;11.63;3.07;;;;;3.10;95445.00;;;;7399155;19;20140;-80
2024/01/28 00:07:54;;;;;;;7.77;3.23;;;;;3.10;95442.00;;;;7398734;19;20129;-84
2024/01/28 00:10:28;;;;;;;7.33;2.77;;;;;3.10;95438.00;;;;7399652;19;20591;-81
2024/01/28 00:13:03;;;;;;;5.20;2.87;;;;;3.00;95435.00;;;;7397605;19;20253;-80
2024/01/28 00:15:38;;;;;;;3.77;3.03;;;;;3.00;95439.00;;;;7399645;19;20153;-82
2024/01/28 00:18:06;;;;;;;7.73;3.40;;;;;2.90;95437.00;;;;7398243;19;20156;-82
2024/01/28 00:20:41;;;;;;;5.13;3.00;;;;;3.00;95438.00;;;;7397889;19;20169;-85
2024/01/28 00:23:12;;;;;;;4.00;2.33;;;;;2.80;95427.00;;;;7398833;19;20161;-82
2024/01/28 00:25:40;;;;;;;4.17;2.30;;;;;2.70;95420.00;;;;7399470;19;20133;-81
2024/01/28 00:28:14;;;;;;;6.33;2.60;;;;;2.70;95420.00;;;;7399852;19;20608;-82
2024/01/28 00:30:49;;;;;;;4.27;2.40;;;;;2.80;95415.00;;;;7398032;19;20125;-81
2024/01/28 00:33:24;;;;;;;6.20;2.70;;;;;2.80;95412.00;;;;7400456;19;20139;-82
2024/01/28 00:35:52;;;;;;;5.63;2.30;;;;;2.80;95412.00;;;;7398215;19;20140;-81
2024/01/28 00:38:32;;;;;;;4.50;2.40;;;;;2.70;95410.00;;;;7398512;19;20604;-81
2024/01/28 00:41:00;;;;;;;5.87;2.43;;;;;2.70;95416.00;;;;7395558;19;20148;-80
2024/01/28 00:43:36;;;;;;;7.43;2.67;;;;;2.70;95415.00;;;;7397182;19;20175;-80
2024/01/28 00:46:04;;;;;;;5.13;2.73;;;;;2.70;95415.00;;;;7400238;19;20456;-82
2024/01/28 00:48:38;;;;;;;4.77;2.53;;;;;2.80;95409.00;;;;7397676;19;20153;-81
2024/01/28 00:51:06;;;;;;;10.27;3.03;;;;;2.70;95403.00;;;;7397351;19;20149;-80
2024/01/28 00:53:40;;;;;;;3.20;2.40;;;;;2.70;95407.00;;;;7397324;19;20614;-83
2024/01/28 00:56:17;;;;;;;5.43;2.67;;;;;2.70;95410.00;;;;7398516;19;20144;-83
2024/01/28 00:58:52;;;;;;;6.33;2.90;;;;;2.80;95407.00;;;;7398184;19;20474;-83
2024/01/28 01:01:20;;;;;;;4.00;2.40;;;;;2.80;95413.00;;;;7397078;19;20616;-85
2024/01/28 01:04:00;;;;;;;6.27;2.23;;;;;2.70;95397.00;;;;7393966;19;20148;-82
2024/01/28 01:06:28;;;;;;;5.37;2.57;;;;;2.80;95393.00;;;;7395199;19;20207;-84
2024/01/28 01:09:02;;;;;;;3.17;2.23;;;;;2.80;95402.00;;;;7399076;19;20160;-81
2024/01/28 01:11:30;;;;;;;3.93;2.50;;;;;2.90;95398.00;;;;7398424;19;20125;-82
2024/01/28 01:14:04;;;;;;;5.50;2.33;;;;;2.90;95398.00;;;;7399392;19;20151;-82
2024/01/28 01:16:39;;;;;;;5.40;2.50;;;;;3.00;95393.00;;;;7399642;19;20140;-85
2024/01/28 01:19:14;;;;;;;3.93;2.10;;;;;3.00;95384.00;;;;7399410;19;20485;-84
2024/01/28 01:21:50;;;;;;;6.20;2.70;;;;;3.10;95384.00;;;;7398426;19;20607;-80
2024/01/28 01:24:25;;;;;;;6.17;2.43;;;;;3.10;95383.00;;;;7401097;19;20149;-81
2024/01/28 01:26:59;;;;;;;3.67;2.17;;;;;3.10;95379.00;;;;7406335;19;20161;-81
2024/01/28 01:29:33;;;;;;;3.17;2.00;;;;;3.20;95385.00;;;;7405391;19;20211;-83
2024/01/28 01:32:07;;;;;;;3.07;2.00;;;;;3.30;95389.00;;;;7405742;19;20157;-83
2024/01/28 01:34:42;;;;;;;5.27;2.10;;;;;3.30;95381.00;;;;7405126;19;20168;-85
2024/01/28 01:37:17;;;;;;;5.60;1.97;;;;;3.30;95395.00;;;;7404153;19;20141;-83
2024/01/28 01:39:47;;;;;;;3.73;2.10;;;;;3.30;95393.00;;;;7403840;19;20129;-82
2024/01/28 01:42:22;;;;;;;4.23;1.57;;;;;3.40;95391.00;;;;7404769;19;20152;-83
2024/01/28 01:44:50;;;;;;;3.10;2.00;;;;;3.20;95384.00;;;;7402571;19;20250;-80
2024/01/28 01:47:26;;;;;;;4.80;2.33;;;;;3.30;95391.00;;;;7404408;19;20152;-82
2024/01/28 01:49:56;;;;;;;4.87;1.97;;;;;3.20;95384.00;;;;7404055;19;20157;-83
2024/01/28 01:52:24;;;;;;;4.73;1.70;;;;;3.30;95383.00;;;;7406200;19;20125;-82
2024/01/28 01:54:59;;;;;;;2.87;1.90;;;;;3.40;95384.00;;;;7404151;19;20767;-83
2024/01/28 01:57:29;;;;;;;2.93;1.50;;;;;3.50;95384.00;;;;7404717;19;20668;-83
2024/01/28 02:00:04;;;;;;;5.20;1.80;;;;;3.60;95380.00;;;;7406304;19;20599;-82
2024/01/28 02:02:52;;;;;;;2.23;1.70;;;;;3.60;95380.00;;;;7402607;19;20172;-83
2024/01/28 02:05:27;;;;;;;2.67;1.60;;;;;3.70;95374.00;;;;7404953;19;20133;-84
2024/01/28 02:08:02;;;;;;;4.10;1.60;;;;;3.90;95376.00;;;;7403985;19;20691;-82
2024/01/28 02:10:31;;;;;;;3.97;1.50;;;;;3.90;95367.00;;;;7405547;19;20204;-83
2024/01/28 02:13:07;;;;;;;2.63;1.23;;;;;3.90;95371.00;;;;7403120;19;20132;-82
2024/01/28 02:15:38;;;;;;;1.70;1.60;;;;;4.00;95359.00;;;;7404450;19;20496;-82
2024/01/28 02:18:13;;;;;;;1.40;1.30;;;;;3.90;95364.00;;;;7403656;19;20196;-82
2024/01/28 02:20:42;;;;;;;4.03;1.40;;;;;4.00;95357.00;;;;7403001;19;20145;-83
2024/01/28 02:23:10;;;;;;;2.67;1.37;;;;;4.00;95355.00;;;;7403579;19;20141;-84
2024/01/28 02:25:45;;;;;;;2.40;1.30;;;;;3.70;95354.00;;;;7404163;19;20153;-85
2024/01/28 02:28:13;;;;;;;2.27;1.30;;;;;3.80;95355.00;;;;7403202;19;20141;-83
2024/01/28 02:30:53;;;;;;;1.50;1.20;;;;;3.70;95352.00;;;;7403769;19;20176;-82
2024/01/28 02:33:28;;;;;;;1.23;1.13;;;;;3.80;95356.00;;;;7402720;19;20149;-84
2024/01/28 02:36:03;;;;;;;1.43;1.20;;;;;3.70;95350.00;;;;7401711;19;20212;-84
2024/01/28 02:38:33;;;;;;;3.27;1.33;;;;;3.60;95355.00;;;;7403494;19;20597;-82
2024/01/28 02:41:07;;;;;;;1.30;1.20;;;;;3.70;95352.00;;;;7401112;19;20173;-82
2024/01/28 02:43:35;;;;;;;1.87;1.20;;;;;3.50;95349.00;;;;7403125;19;20176;-81
2024/01/28 02:46:02;;;;;;;1.60;1.27;;;;;3.60;95344.00;;;;7403330;19;20471;-81
2024/01/28 02:48:37;;;;;;;1.57;1.27;;;;;3.60;95348.00;;;;7403185;19;20470;-81
2024/01/28 02:51:05;;;;;;;4.63;1.43;;;;;3.60;95333.00;;;;7403908;19;20133;-84
2024/01/28 02:53:39;;;;;;;1.97;1.20;;;;;3.60;95339.00;;;;7402199;19;20140;-82
2024/01/28 02:56:14;;;;;;;1.87;1.17;;;;;3.70;95338.00;;;;7402321;19;20174;-83
2024/01/28 02:58:42;;;;;;;2.13;1.07;;;;;3.60;95329.00;;;;7400271;19;20160;-83
2024/01/28 03:01:12;;;;;;;1.97;1.00;;;;;3.70;95332.00;;;;7399487;19;20477;-84
2024/01/28 03:03:53;;;;;;;1.70;1.10;;;;;3.70;95337.00;;;;7400137;19;20173;-84
2024/01/28 03:06:21;;;;;;;2.20;1.00;;;;;3.70;95332.00;;;;7401723;19;20141;-82
2024/01/28 03:08:56;;;;;;;0.80;0.80;;;;;3.70;95330.00;;;;7403964;19;20136;-82
2024/01/28 03:11:24;;;;;;;2.93;1.13;;;;;3.70;95336.00;;;;7401756;19;20624;-82
2024/01/28 03:13:52;;;;;;;0.90;0.90;;;;;3.70;95335.00;;;;7401652;19;20201;-83
2024/01/28 03:16:27;;;;;;;2.53;1.10;;;;;3.80;95331.00;;;;7400343;19;20132;-84
2024/01/28 03:18:55;;;;;;;1.27;1.00;;;;;3.80;95331.00;;;;7401749;19;20627;-82
2024/01/28 03:21:31;;;;;;;1.63;0.90;;;;;3.90;95330.00;;;;7401356;19;20161;-82
2024/01/28 03:23:59;;;;;;;1.90;0.80;;;;;4.00;95339.00;;;;7401008;19;20148;-83
2024/01/28 03:26:34;;;;;;;1.13;1.00;;;;;3.90;95327.00;;;;7401900;19;20224;-82
2024/01/28 03:29:08;;;;;;;1.17;1.00;;;;;4.00;95329.00;;;;7401712;19;20143;-82
2024/01/28 03:31:42;;;;;;;1.53;0.90;;;;;4.00;95335.00;;;;7401926;19;20133;-82
2024/01/28 03:34:16;;;;;;;0.73;0.73;;;;;4.10;95325.00;;;;7400563;19;20129;-82
2024/01/28 03:36:44;;;;;;;0.87;0.60;;;;;4.00;95323.00;;;;7401280;19;20132;-82
2024/01/28 03:39:18;;;;;;;0.83;0.57;;;;;4.20;95332.00;;;;7401305;19;20469;-82
2024/01/28 03:41:52;;;;;;;1.40;0.87;;;;;4.20;95329.00;;;;7399196;19;20208;-84
2024/01/28 03:44:26;;;;;;;1.50;0.80;;;;;4.20;95325.00;;;;7398242;19;20240;-83
2024/01/28 03:46:55;;;;;;;1.93;0.90;;;;;4.20;95321.00;;;;7400549;19;20680;-83
2024/01/28 03:49:29;;;;;;;3.10;0.90;;;;;4.20;95324.00;;;;7402870;19;20588;-83
2024/01/28 03:51:57;;;;;;;0.60;0.60;;;;;4.20;95320.00;;;;7401922;19;20596;-82
2024/01/28 03:54:31;;;;;;;1.10;0.80;;;;;4.40;95316.00;;;;7401752;19;20135;-82
2024/01/28 03:57:00;;;;;;;3.03;0.70;;;;;4.20;95323.00;;;;7400294;19;20609;-82
2024/01/28 03:59:39;;;;;;;1.00;0.80;;;;;4.30;95322.00;;;;7401073;19;20501;-83
2024/01/28 04:02:09;;;;;;;0.70;0.70;;;;;4.30;95322.00;;;;7399650;19;20637;-81
2024/01/28 04:04:49;;;;;;;1.10;0.60;;;;;4.30;95335.00;;;;7400291;19;20124;-81
2024/01/28 04:07:17;;;;;;;1.13;0.90;;;;;4.30;95325.00;;;;7399396;19;20148;-81
2024/01/28 04:09:51;;;;;;;1.03;0.70;;;;;4.40;95328.00;;;;7399247;19;20136;-84
2024/01/28 04:12:31;;;;;;;0.60;0.50;;;;;4.40;95336.00;;;;7399921;19;20141;-81
2024/01/28 04:15:13;;;;;;;0.67;0.67;;;;;4.40;95329.00;;;;7400662;19;20125;-82
2024/01/28 04:17:48;;;;;;;0.70;0.60;;;;;4.50;95320.00;;;;7400698;19;20584;-81
2024/01/28 04:20:16;;;;;;;1.07;0.83;;;;;4.50;95323.00;;;;7397999;19;20581;-83
2024/01/28 04:22:51;;;;;;;0.60;0.60;;;;;4.60;95332.00;;;;7399195;19;20131;-82
2024/01/28 04:25:19;;;;;;;0.70;0.60;;;;;4.50;95324.00;;;;7400558;19;20133;-82
2024/01/28 04:27:54;;;;;;;0.73;0.73;;;;;4.50;95336.00;;;;7399106;19;20372;-81
2024/01/28 04:30:28;;;;;;;0.60;0.60;;;;;4.40;95325.00;;;;7397415;19;20149;-79
2024/01/28 04:33:02;;;;;;;0.53;0.50;;;;;4.30;95325.00;;;;7400014;19;20133;-78
2024/01/28 04:35:36;;;;;;;0.73;0.70;;;;;4.40;95334.00;;;;7398103;19;20151;-79
2024/01/28 04:38:10;;;;;;;0.63;0.60;;;;;4.40;95326.00;;;;7399567;19;20129;-80
2024/01/28 04:40:37;;;;;;;1.30;0.60;;;;;4.40;95324.00;;;;7397545;19;20612;-78
2024/01/28 04:43:12;;;;;;;0.70;0.50;;;;;4.40;95329.00;;;;7398161;19;20483;-79
2024/01/28 04:45:46;;;;;;;1.47;0.80;;;;;4.40;95325.00;;;;7397345;19;20135;-80
2024/01/28 04:48:14;;;;;;;1.07;0.83;;;;;4.40;95325.00;;;;7397446;19;20192;-78
2024/01/28 04:50:42;;;;;;;1.03;0.63;;;;;4.30;95323.00;;;;7397694;19;20145;-81
2024/01/28 04:53:16;;;;;;;1.17;0.70;;;;;4.50;95317.00;;;;7397092;19;20136;-81
2024/01/28 04:55:44;;;;;;;1.53;0.60;;;;;4.50;95323.00;;;;7398011;19;20668;-80
2024/01/28 04:58:18;;;;;;;0.80;0.57;;;;;4.60;95319.00;;;;7398629;19;20571;-78
2024/01/28 05:00:52;;;;;;;0.53;0.53;;;;;4.40;95320.00;;;;7396728;19;20137;-78
2024/01/28 05:03:26;;;;;;;0.73;0.60;;;;;4.40;95333.00;;;;7395433;19;20624;-81
2024/01/28 05:06:04;;;;;;;2.23;0.70;;;;;4.40;95321.00;;;;7399838;19;20491;-80
2024/01/28 05:08:38;;;;;;;0.50;0.50;;;;;4.60;95316.00;;;;7397206;19;20144;-81
2024/01/28 05:11:12;;;;;;;0.97;0.50;;;;;4.70;95312.00;;;;7396934;19;20263;-77
2024/01/28 05:13:46;;;;;;;0.43;0.43;;;;;4.70;95311.00;;;;7392074;19;20544;-81
2024/01/28 05:16:20;;;;;;;1.03;0.57;;;;;4.70;95317.00;;;;7398189;19;20165;-78
2024/01/28 05:18:55;;;;;;;0.40;0.33;;;;;4.60;95324.00;;;;7396773;19;20133;-80
2024/01/28 05:21:29;;;;;;;0.77;0.50;;;;;4.60;95315.00;;;;7397505;19;20143;-80
2024/01/28 05:23:57;;;;;;;0.83;0.73;;;;;4.70;95310.00;;;;7396111;19;20156;-78
2024/01/28 05:26:32;;;;;;;0.77;0.57;;;;;4.80;95312.00;;;;7396891;19;20136;-79
2024/01/28 05:29:06;;;;;;;0.60;0.60;;;;;4.80;95314.00;;;;7396524;19;20655;-79
2024/01/28 05:31:41;;;;;;;0.40;0.40;;;;;4.80;95299.00;;;;7396745;19;20152;-79
2024/01/28 05:34:16;;;;;;;0.50;0.50;;;;;4.80;95309.00;;;;7397338;19;20605;-81
2024/01/28 05:36:48;;;;;;;0.40;0.40;;;;;5.00;95304.00;;;;7397327;19;20145;-80
2024/01/28 05:39:22;;;;;;;0.47;0.40;;;;;4.90;95303.00;;;;7398239;19;20475;-82
2024/01/28 05:41:59;;;;;;;0.33;0.33;;;;;4.90;95302.00;;;;7394627;19;20173;-78
2024/01/28 05:44:27;;;;;;;0.47;0.47;;;;;4.90;95303.00;;;;7389246;19;20201;-78
2024/01/28 05:47:01;;;;;;;0.60;0.60;;;;;4.90;95298.00;;;;7386867;19;20145;-80
2024/01/28 05:49:29;;;;;;;0.37;0.30;;;;;5.00;95298.00;;;;7388696;19;20569;-80
2024/01/28 05:52:08;;;;;;;0.50;0.40;;;;;5.00;95302.00;;;;7388121;19;20613;-82
2024/01/28 05:54:43;;;;;;;0.50;0.50;;;;;5.00;95297.00;;;;7388486;19;20136;-79
2024/01/28 05:57:17;;;;;;;0.20;0.20;;;;;4.90;95296.00;;;;7388013;19;20160;-80
2024/01/28 05:59:52;;;;;;;0.30;0.30;;;;;4.90;95300.00;;;;7387839;19;20216;-79
2024/01/28 06:02:34;;;;;;;0.60;0.43;;;;;4.90;95313.00;;;;7387255;19;20522;-79
2024/01/28 06:05:16;;;;;;;0.20;0.20;;;;;5.10;95314.00;;;;7389820;19;20216;-79
2024/01/28 06:07:51;;;;;;;0.50;0.37;;;;;5.10;95307.00;;;;7387729;19;20137;-79
2024/01/28 06:10:25;;;;;;;0.33;0.30;;;;;5.10;95313.00;;;;7388911;19;20483;-80
2024/01/28 06:13:03;;;;;;;0.20;0.20;;;;;5.00;95297.00;;;;7395223;19;20156;-79
2024/01/28 06:15:38;;;;;;;0.30;0.30;;;;;5.20;95307.00;;;;7393663;19;20188;-79
2024/01/28 06:18:06;;;;;;;0.87;0.47;;;;;5.30;95302.00;;;;7396339;19;20585;-81
2024/01/28 06:20:41;;;;;;;0.23;0.23;;;;;5.30;95303.00;;;;7392678;19;20481;-79
2024/01/28 06:23:09;;;;;;;1.67;0.40;;;;;5.00;95295.00;;;;7393615;19;20149;-79
2024/01/28 06:25:43;;;;;;;0.30;0.30;;;;;5.10;95302.00;;;;7395604;19;20589;-79
2024/01/28 06:28:17;;;;;;;0.30;0.30;;;;;5.10;95310.00;;;;7394467;19;20149;-81
2024/01/28 06:30:45;;;;;;;0.23;0.23;;;;;5.20;95303.00;;;;7392653;19;20820;-79
2024/01/28 06:33:22;;;;;;;1.40;0.47;;;;;5.40;95296.00;;;;7394223;19;20152;-79
2024/01/28 06:35:50;;;;;;;0.30;0.23;;;;;5.50;95304.00;;;;7392907;19;20592;-80
2024/01/28 06:38:24;;;;;;;0.40;0.30;;;;;5.30;95295.00;;;;7394254;19;20136;-79
2024/01/28 06:40:52;;;;;;;0.20;0.20;;;;;5.40;95308.00;;;;7393447;19;20605;-79
2024/01/28 06:43:22;;;;;;;0.30;0.27;;;;;5.40;95303.00;;;;7392779;19;20577;-79
2024/01/28 06:45:56;;;;;;;0.20;0.20;;;;;5.40;95302.00;;;;7394705;19;20147;-78
2024/01/28 06:48:25;;;;;;;0.43;0.40;;;;;5.40;95291.00;;;;7393250;19;20172;-79
2024/01/28 06:51:05;;;;;;;1.30;0.40;;;;;5.50;95295.00;;;;7393783;19;20145;-80
2024/01/28 06:53:32;;;;;;;0.30;0.30;;;;;5.30;95305.00;;;;7392154;19;20152;-79
2024/01/28 06:56:07;;;;;;;0.20;0.20;;;;;5.30;95305.00;;;;7391675;19;20148;-79
2024/01/28 06:58:35;;;;;;;1.70;0.40;;;;;5.20;95320.00;;;;7392924;19;20597;-79
2024/01/28 07:01:10;;;;;;;0.20;0.20;;;;;5.10;95318.00;;;;7390964;19;20132;-79
2024/01/28 07:03:53;;;;;;;0.60;0.50;;;;;5.10;95316.00;;;;7392171;19;20244;-80
2024/01/28 07:06:28;;;;;;;0.43;0.33;;;;;5.10;95310.00;;;;7390071;19;20532;-81
2024/01/28 07:08:57;;;;;;;0.33;0.33;;;;;5.00;95313.00;;;;7391126;19;20133;-80
2024/01/28 07:11:33;;;;;;;0.40;0.40;;;;;5.20;95308.00;;;;7393061;19;20145;-79
2024/01/28 07:14:01;;;;;;;0.70;0.30;;;;;5.40;95308.00;;;;7392816;19;20180;-79
2024/01/28 07:16:38;;;;;;;0.40;0.40;;;;;5.10;95314.00;;;;7392017;19;20533;-78
2024/01/28 07:19:12;;;;;;;0.40;0.33;;;;;5.30;95309.00;;;;7393846;19;20169;-79
2024/01/28 07:21:51;;;;;;;0.57;0.40;;;;;5.20;95308.00;;;;7392574;19;20148;-80
2024/01/28 07:24:26;;;;;;;0.30;0.30;;;;;5.50;95313.00;;;;7391545;19;20140;-79
2024/01/28 07:27:01;;;;;;;0.40;0.33;;;;;5.50;95306.00;;;;7389845;19;20211;-80
2024/01/28 07:29:29;;;;;;;0.50;0.40;;;;;5.50;95315.00;;;;7390279;19;20149;-80
2024/01/28 07:31:57;;;;;;;1.83;0.30;;;;;5.60;95315.00;;;;7392883;19;20129;-79
2024/01/28 07:34:32;;;;;;;0.60;0.47;;;;;5.90;95316.00;;;;7394129;19;20136;-80
2024/01/28 07:37:09;;;;;;;0.70;0.60;;;;;5.90;95316.00;;;;7392665;19;20136;-80
2024/01/28 07:39:43;;;;;;;0.90;0.70;;;;;6.10;95313.00;;;;7391240;19;20158;-78
2024/01/28 07:42:17;;;;;;;0.50;0.50;;;;;6.00;95310.00;;;;7386666;19;20140;-78
2024/01/28 07:44:48;;;;;;;0.40;0.40;;;;;6.30;95317.00;;;;7389299;19;20177;-79
2024/01/28 07:47:16;;;;;;;0.63;0.43;;;;;6.20;95317.00;;;;7390284;19;20148;-79
2024/01/28 07:49:56;;;;;;;0.40;0.30;;;;;6.70;95300.00;;;;7390698;19;20152;-79
2024/01/28 07:52:32;;;;;;;0.30;0.30;;;;;7.60;95254.00;;;;7390942;19;20169;-79
2024/01/28 07:55:00;;;;;;;0.33;0.30;;;;;8.20;95238.00;;;;7391143;19;20141;-80
2024/01/28 07:57:34;;;;;;;0.30;0.30;;;;;8.30;95240.00;;;;7391920;19;20131;-79
2024/01/28 08:00:10;;;;;;;0.20;0.20;;;;;8.70;95246.00;;;;7389785;19;20152;-80
2024/01/28 08:02:45;;;;;;;0.30;0.30;;;;;8.70;95237.00;;;;7391379;19;20169;-80
2024/01/28 08:05:29;;;;;;;0.37;0.37;;;;;8.90;95243.00;;;;7391920;19;20147;-79
2024/01/28 08:07:57;;;;;;;0.30;0.30;;;;;8.90;95239.00;;;;7390046;19;20224;-79
2024/01/28 08:10:31;;;;;;;0.50;0.50;;;;;8.70;95240.00;;;;7390609;19;20558;-78
2024/01/28 08:13:05;;;;;;;0.40;0.40;;;;;8.90;95231.00;;;;7392239;19;21054;-78
2024/01/28 08:15:39;;;;;;;0.30;0.30;;;;;9.10;95237.00;;;;7389716;19;20554;-80
2024/01/28 08:18:07;;;;;;;0.40;0.40;;;;;9.20;95238.00;;;;7389748;19;20565;-79
2024/01/28 08:20:41;;;;;;;0.40;0.40;;;;;9.30;95234.00;;;;7390507;19;20144;-80
2024/01/28 08:23:15;;;;;;;0.33;0.33;;;;;9.40;95240.00;;;;7391397;19;20125;-80
2024/01/28 08:25:49;;;;;;;0.82;0.35;;;;;9.60;95245.00;;;;7384798;19;20606;-81
2024/01/28 08:28:17;;;;;;;0.47;0.47;;;;;9.80;95246.00;;;;7383729;19;20589;-80
2024/01/28 08:30:51;;;;;;;0.70;0.40;;;;;10.10;95245.00;;;;7383284;19;20157;-81
2024/01/28 08:33:19;;;;;;;0.43;0.40;;;;;10.20;95257.00;;;;7385181;19;20167;-80
2024/01/28 08:35:53;;;;;;;0.30;0.30;;;;;10.10;95255.00;;;;7387021;19;20604;-77
2024/01/28 08:38:21;;;;;;;0.60;0.40;;;;;10.20;95263.00;;;;7387793;19;20178;-78
2024/01/28 08:40:55;;;;;;;1.13;0.80;;;;;10.70;95251.00;;;;7385716;19;20664;-81
2024/01/28 08:43:29;;;;;;;2.15;0.60;;;;;10.80;95262.00;;;;7382883;19;20212;-79
2024/01/28 08:46:04;;;;;;;0.30;0.20;;;;;11.00;95264.00;;;;7388442;19;20155;-80
2024/01/28 08:48:32;;;;;;;0.25;0.25;;;;;11.30;95261.00;;;;7389781;19;20246;-76
2024/01/28 08:51:06;;;;;;;0.45;0.43;;;;;11.50;95266.00;;;;7389077;19;20148;-79
2024/01/28 08:53:42;;;;;;;0.32;0.32;;;;;11.70;95275.00;;;;7389593;19;20129;-79
2024/01/28 08:56:16;;;;;;;0.60;0.57;;;;;11.40;95272.00;;;;7390158;19;20584;-78
2024/01/28 08:58:43;;;;;;;1.25;0.30;;;;;11.40;95287.00;;;;7389776;19;20132;-76
2024/01/28 09:01:13;;;;;;;0.47;0.35;;;;;11.80;95286.00;;;;7388886;19;20243;-77
2024/01/28 09:03:53;;;;;;;0.45;0.45;;;;;11.80;95293.00;;;;7389593;19;20518;-80
2024/01/28 09:06:25;;;;;;;0.30;0.30;;;;;12.00;95282.00;;;;7388413;19;20144;-77
2024/01/28 09:09:00;;;;;;;0.40;0.40;;;;;12.30;95293.00;;;;7388219;19;20195;-79
2024/01/28 09:11:36;;;;;;;0.32;0.30;;;;;12.30;95293.00;;;;7387991;19;20145;-80
2024/01/28 09:14:10;;;;;;;0.40;0.35;;;;;13.00;95301.00;;;;7389640;19;20582;-80
2024/01/28 09:16:44;;;;;;;0.38;0.30;;;;;12.80;95301.00;;;;7387451;19;20153;-79
2024/01/28 09:19:12;;;;;;;0.32;0.30;;;;;13.30;95305.00;;;;7388568;19;20156;-80
2024/01/28 09:21:46;;;;;;;0.32;0.32;;;;;13.20;95299.00;;;;7387608;19;20161;-78
2024/01/28 09:24:14;;;;;;;0.43;0.40;;;;;12.90;95300.00;;;;7387674;19;20238;-80
2024/01/28 09:26:48;;;;;;;0.45;0.40;;;;;13.30;95306.00;;;;7388461;19;20241;-77
2024/01/28 09:29:22;;;;;;;0.55;0.40;;;;;13.90;95305.00;;;;7386398;19;20173;-78
2024/01/28 09:31:50;;;;;;;1.10;0.90;;;;;14.10;95310.00;;;;7389456;19;20137;-81
2024/01/28 09:34:17;;;;;;;1.17;0.70;;;;;14.10;95311.00;;;;7388838;19;20153;-78
2024/01/28 09:36:52;;;;;;;0.43;0.43;;;;;13.70;95313.00;;;;7388024;19;20667;-79
2024/01/28 09:39:28;;;;;;;0.68;0.60;;;;;14.10;95304.00;;;;7387902;19;20478;-78
2024/01/28 09:42:10;;;;;;;1.25;0.57;;;;;13.70;95309.00;;;;7387447;19;20148;-78
2024/01/28 09:44:45;;;;;;;1.85;0.52;;;;;14.40;95310.00;;;;7387482;19;20271;-78
2024/01/28 09:47:13;;;;;;;0.80;0.63;;;;;14.60;95318.00;;;;7392677;19;20151;-78
2024/01/28 09:49:48;;;;;;;1.02;0.68;;;;;14.70;95322.00;;;;7395751;19;20601;-78
2024/01/28 09:52:18;;;;;;;0.63;0.50;;;;;15.10;95321.00;;;;7394374;19;20148;-78
2024/01/28 09:54:52;;;;;;;0.75;0.70;;;;;14.60;95321.00;;;;7395815;19;20589;-75
2024/01/28 09:57:20;;;;;;;0.52;0.52;;;;;15.10;95318.00;;;;7393064;19;20148;-79
2024/01/28 09:59:56;;;;;;;0.55;0.50;;;;;14.40;95320.00;;;;7393396;19;20144;-77
2024/01/28 10:02:44;;;;;;;0.65;0.50;;;;;14.90;95323.00;;;;7394664;19;20145;-79
2024/01/28 10:05:19;;;;;;;0.57;0.40;;;;;15.50;95318.00;;;;7393147;19;20141;-77
2024/01/28 10:07:58;;;;;;;2.55;0.55;;;;;15.60;95314.00;;;;7393826;19;20145;-80
2024/01/28 10:10:36;;;;;;;2.05;0.55;;;;;15.90;95326.00;;;;7394315;19;20133;-78
2024/01/28 10:13:11;;;;;;;0.50;0.47;;;;;15.60;95323.00;;;;7394681;19;20471;-80
2024/01/28 10:15:39;;;;;;;0.40;0.40;;;;;14.50;95322.00;;;;7388580;19;20145;-79
2024/01/28 10:18:13;;;;;;;0.40;0.40;;;;;15.30;95329.00;;;;7380591;19;20136;-79
2024/01/28 10:20:41;;;;;;;0.50;0.50;;;;;14.70;95326.00;;;;7379875;19;20156;-80
2024/01/28 10:23:17;;;;;;;0.50;0.50;;;;;15.20;95321.00;;;;7377552;19;20147;-79
2024/01/28 10:25:45;;;;;;;0.30;0.30;;;;;15.60;95321.00;;;;7376744;19;20624;-82
2024/01/28 10:28:14;;;;;;;0.57;0.50;;;;;15.60;95314.00;;;;7374747;19;20129;-80
2024/01/28 10:30:50;;;;;;;0.50;0.40;;;;;15.20;95310.00;;;;7373360;19;20125;-80
2024/01/28 10:33:19;;;;;;;1.30;0.70;;;;;16.30;95320.00;;;;7377062;19;20631;-78
2024/01/28 10:36:03;;;;;;;0.20;0.20;;;;;15.40;95318.00;;;;7374513;19;20198;-81
2024/01/28 10:38:34;;;;;;;0.40;0.38;;;;;15.30;95323.00;;;;7376965;19;20208;-82
2024/01/28 10:41:29;;;;;;;0.47;0.47;;;;;15.40;95319.00;;;;7376175;19;20672;-81
2024/01/28 10:44:04;;;;;;;0.63;0.50;;;;;16.10;95303.00;;;;7383325;19;20265;-81
2024/01/28 10:46:39;;;;;;;0.40;0.40;;;;;15.80;95307.00;;;;7376163;19;22625;-81
2024/01/28 10:49:22;;;;;;;0.25;0.25;;;;;15.70;95307.00;;;;7377800;19;20441;-82
2024/01/28 10:51:52;;;;;;;0.28;0.28;;;;;16.10;95305.00;;;;7377043;19;20132;-81
2024/01/28 10:54:28;;;;;;;0.45;0.43;;;;;15.90;95302.00;;;;7374971;19;20493;-83
2024/01/28 10:57:04;;;;;;;1.02;0.50;;;;;16.20;95299.00;;;;7375908;19;20484;-81
2024/01/28 10:59:37;;;;;;;0.30;0.30;;;;;15.60;95300.00;;;;7373654;19;20511;-80
2024/01/28 11:02:12;;;;;;;0.43;0.40;;;;;15.30;95219.00;;;;7375114;19;20596;-78
2024/01/28 11:04:43;;;;;;;0.25;0.25;;;;;15.80;95302.00;;;;7375623;19;20181;-79
2024/01/28 11:07:21;;;;;;;0.25;0.25;;;;;16.20;95283.00;;;;7376990;19;20685;-78
2024/01/28 11:10:02;;;;;;;0.30;0.30;;;;;16.40;95286.00;;;;7378401;19;20176;-79
2024/01/28 11:12:39;;;;;;;0.40;0.32;;;;;16.90;95282.00;;;;7375701;19;21265;-78
2024/01/28 11:15:13;;;;;;;0.40;0.30;;;;;16.80;95286.00;;;;7380078;19;21778;-78
2024/01/28 11:17:47;;;;;;;0.55;0.52;;;;;16.50;95286.00;;;;7386008;19;20635;-83
2024/01/28 11:20:31;;;;;;;1.48;0.57;;;;;15.60;95281.00;;;;7387742;19;20171;-78
2024/01/28 11:23:01;;;;;;;0.30;0.30;;;;;16.20;95278.00;;;;7386884;19;20129;-78
2024/01/28 11:25:39;;;;;;;0.80;0.60;;;;;16.70;95268.00;;;;7386713;19;20133;-83
2024/01/28 11:28:07;;;;;;;0.30;0.30;;;;;16.90;95270.00;;;;7388656;19;20264;-82
2024/01/28 11:30:46;;;;;;;0.55;0.47;;;;;17.30;95276.00;;;;7388168;19;20585;-80
2024/01/28 11:33:21;;;;;;;0.60;0.40;;;;;16.50;95277.00;;;;7389782;19;20144;-82
2024/01/28 11:35:52;;;;;;;0.55;0.40;;;;;16.70;95263.00;;;;7390430;19;20177;-78
2024/01/28 11:38:31;;;;;;;0.30;0.30;;;;;16.30;95268.00;;;;7387303;19;20638;-81
2024/01/28 11:41:10;;;;;;;1.13;0.55;;;;;16.90;95265.00;;;;7388111;19;20193;-83
2024/01/28 11:43:45;;;;;;;0.40;0.40;;;;;17.20;95263.00;;;;7388628;19;20508;-82
2024/01/28 11:46:13;;;;;;;0.70;0.70;;;;;17.90;95255.00;;;;7391430;19;20133;-81
2024/01/28 11:48:47;;;;;;;0.63;0.52;;;;;16.20;95266.00;;;;7387843;19;20168;-79
2024/01/28 11:51:15;;;;;;;0.70;0.70;;;;;17.10;95262.00;;;;7389523;19;20148;-79
2024/01/28 11:53:50;;;;;;;0.63;0.63;;;;;17.60;95262.00;;;;7385901;19;20144;-81
2024/01/28 11:56:18;;;;;;;0.60;0.60;;;;;17.80;95255.00;;;;7385879;19;20149;-80
2024/01/28 11:58:46;;;;;;;0.57;0.55;;;;;18.60;95248.00;;;;7388712;19;20469;-86
2024/01/28 12:01:20;;;;;;;2.83;0.70;;;;;16.80;95261.00;;;;7387739;19;20153;-82
2024/01/28 12:04:02;;;;;;;0.50;0.50;;;;;17.60;95256.00;;;;7386753;19;20268;-82
2024/01/28 12:06:33;;;;;;;1.05;0.70;;;;;17.10;95257.00;;;;7389372;19;20141;-83
2024/01/28 12:09:08;;;;;;;1.02;0.60;;;;;17.10;95244.00;;;;7387892;19;20156;-83
2024/01/28 12:11:36;;;;;;;0.80;0.80;;;;;17.40;95241.00;;;;7390410;19;20583;-81
2024/01/28 12:14:14;;;;;;;0.60;0.50;;;;;16.90;95247.00;;;;7390584;19;20664;-79
2024/01/28 12:16:43;;;;;;;0.60;0.50;;;;;16.20;95240.00;;;;7391729;19;20148;-80
2024/01/28 12:19:19;;;;;;;0.40;0.40;;;;;17.00;95242.00;;;;7388505;19;20164;-80
2024/01/28 12:21:47;;;;;;;0.75;0.60;;;;;17.30;95230.00;;;;7389457;19;20157;-79
2024/01/28 12:24:22;;;;;;;0.68;0.50;;;;;17.80;95226.00;;;;7389145;19;20200;-79
2024/01/28 12:26:57;;;;;;;0.60;0.50;;;;;18.00;95228.00;;;;7390874;19;20133;-81
2024/01/28 12:29:31;;;;;;;0.70;0.70;;;;;18.20;95230.00;;;;7389057;19;20152;-80
2024/01/28 12:32:07;;;;;;;0.70;0.60;;;;;18.70;95222.00;;;;7392132;19;20153;-82
2024/01/28 12:34:41;;;;;;;0.88;0.50;;;;;18.80;95228.00;;;;7390888;19;20188;-83
2024/01/28 12:37:09;;;;;;;0.70;0.70;;;;;18.50;95223.00;;;;7384860;19;20129;-83
2024/01/28 12:39:45;;;;;;;0.55;0.50;;;;;18.00;95225.00;;;;7377422;19;20807;-81
2024/01/28 12:42:15;;;;;;;0.30;0.30;;;;;18.60;95217.00;;;;7377730;19;20463;-79
2024/01/28 12:44:52;;;;;;;0.50;0.50;;;;;18.70;95222.00;;;;7376299;19;20650;-82
2024/01/28 12:47:23;;;;;;;0.60;0.60;;;;;17.30;95215.00;;;;7376241;19;20632;-81
2024/01/28 12:49:57;;;;;;;0.63;0.50;;;;;17.50;95215.00;;;;7377066;19;20617;-79
2024/01/28 12:52:29;;;;;;;0.60;0.60;;;;;17.90;95211.00;;;;7388989;19;20148;-87